Aérodrome :
LOGIN :

S'inscrire | Disclaimer

   EN    FR    IT 

 










Légende :    VFR   VFR Marginal   IFR   IFR Intensif   IFR Très Intensif
Visi : 
Plafond : 
>= 8 km
>= 3000ft
5 à 8 km
1000 à 3000 ft
1500m à 5 km
500 à 1000 ft
800 à 1500m
200 à 500 ft
< 800m
< 200 ft
Symboles :   Orages  Brouillard  Fortes neiges  Fortes précipitations  Vent > 20 kt
SIGMETs :   Divers  Orages  Givrage  Turbulence  Onde Orograph.  Cendres Volcan.






- Altitude de l'aérodrome : 1411 ft
- Code IATA : SZG


LOWS - Salzburg

DERNIER METAR :
  • 041520Z 02009KT 9999 FEW060 14/M00 Q1022 NOSIG

METARs EXPIRÉS :
  • 041450Z 03009KT 9999 FEW060 13/M01 Q1022 NOSIG
  • 041420Z 36010KT 9999 FEW060 14/M00 Q1022 NOSIG
  • 041350Z 01006KT 9999 FEW060 15/00 Q1022 NOSIG
  • 041320Z 05006KT 9999 FEW060 13/M01 Q1023 NOSIG
  • 041250Z 36007KT 9999 FEW060 14/M03 Q1023 NOSIG

TAF TAF LOWS
Valide du 04 à 12h jusqu'au 05 à 12h UTC


041115Z 0412/0512 03006KT 9999 FEW060 TX17/0512Z TN00/0504Z
BECMG 0418/0420 15005KT CAVOK
BECMG 0507/0509 04006KT



MET'MAP, la Météo Aéronautique d'un coup d'oeil ! - Copyright ORBIFLY Décembre 2007 - Disclaimer

ORBIFLY MET'MAP TEAM :

Programmation & Développement : Alexandra Zaïnal
Sur une idée originale de : Baudouin d'Aumeries
Assistance à la programmation : Marc-Olivier Méhu
Soutien technique & logistique : Manuel Goepfert

Contact : metmap@orbifly.com




SOURCES & CREDITS :

   NOAA